createdAt,value
2019-04-19T00:02:35.582Z,101164.65
2019-04-19T00:05:49.656Z,101159.93
2019-04-19T00:09:12.106Z,101165.17
2019-04-19T00:12:13.173Z,101161.98
2019-04-19T00:15:05.604Z,101162.40
2019-04-19T00:18:12.971Z,101162.89
2019-04-19T00:21:27.847Z,101167.93
2019-04-19T00:24:18.662Z,101161.23
2019-04-19T00:27:24.935Z,101155.95
2019-04-19T00:30:42.309Z,101158.92
2019-04-19T00:33:41.004Z,101163.19
2019-04-19T00:36:38.510Z,101165.64
2019-04-19T00:40:14.605Z,101171.25
2019-04-19T00:43:26.422Z,101170.88
2019-04-19T00:46:29.266Z,101167.80
2019-04-19T00:49:27.838Z,101170.17
2019-04-19T00:52:42.095Z,101165.74
2019-04-19T00:55:44.078Z,101168.89
2019-04-19T00:58:37.432Z,101165.50
2019-04-19T01:01:41.808Z,101157.48
2019-04-19T01:04:45.240Z,101163.66
2019-04-19T01:07:49.424Z,101160.93
2019-04-19T01:11:08.107Z,101162.53
2019-04-19T01:14:12.731Z,101157.92
2019-04-19T01:17:16.538Z,101164.53
2019-04-19T01:20:11.846Z,101164.97
2019-04-19T01:23:15.397Z,101164.23
2019-04-19T01:26:18.701Z,101167.22
2019-04-19T01:29:24.536Z,101168.39
2019-04-19T01:32:28.176Z,101170.06
2019-04-19T01:35:32.720Z,101174.14
2019-04-19T01:38:41.887Z,101171.36
2019-04-19T01:41:51.455Z,101170.08
2019-04-19T01:45:16.507Z,101172.37
2019-04-19T01:48:33.942Z,101166.00
2019-04-19T01:51:51.296Z,101170.89
2019-04-19T01:54:53.350Z,101179.02
2019-04-19T01:58:02.549Z,101171.34
2019-04-19T02:01:03.400Z,101174.78
2019-04-19T02:04:12.173Z,101175.66
2019-04-19T02:07:17.983Z,101177.54
2019-04-19T02:11:02.688Z,101178.38
2019-04-19T02:14:07.891Z,101175.87
2019-04-19T02:17:08.319Z,101186.43
2019-04-19T02:20:11.483Z,101185.48
2019-04-19T02:23:16.942Z,101180.19
2019-04-19T02:26:21.503Z,101189.48
2019-04-19T02:29:28.041Z,101182.36
2019-04-19T02:32:50.746Z,101177.78
2019-04-19T02:36:06.255Z,101194.14
2019-04-19T02:39:10.762Z,101190.98
2019-04-19T02:48:31.828Z,101200.40
2019-04-19T02:51:28.214Z,101197.80
2019-04-19T02:54:33.691Z,101199.77
2019-04-19T03:01:19.113Z,101198.77
2019-04-19T03:04:39.456Z,101201.37
2019-04-19T03:07:02.605Z,101201.03
2019-04-19T03:10:12.958Z,101204.63
2019-04-19T03:13:28.183Z,101204.56
2019-04-19T03:16:41.854Z,101202.80
2019-04-19T03:19:39.926Z,101204.65
2019-04-19T03:22:46.908Z,101198.52
2019-04-19T03:25:45.213Z,101211.40
2019-04-19T03:28:44.622Z,101209.64
2019-04-19T03:32:09.869Z,101208.39
2019-04-19T03:35:12.647Z,101212.61
2019-04-19T03:38:10.546Z,101215.75
2019-04-19T03:41:27.324Z,101215.70
2019-04-19T03:44:25.711Z,101221.05
2019-04-19T03:47:41.278Z,101215.38
2019-04-19T03:50:32.464Z,101220.72
2019-04-19T03:53:51.034Z,101222.53
2019-04-19T03:56:43.792Z,101216.27
2019-04-19T03:59:33.570Z,101227.69
2019-04-19T04:02:41.732Z,101229.60
2019-04-19T04:05:45.988Z,101232.17
2019-04-19T04:08:58.475Z,101232.06
2019-04-19T04:12:32.465Z,101233.63
2019-04-19T04:16:01.069Z,101235.64
2019-04-19T04:18:47.527Z,101230.73
2019-04-19T04:21:53.732Z,101236.83
2019-04-19T04:25:04.223Z,101239.09
2019-04-19T04:28:09.009Z,101239.66
2019-04-19T04:31:17.156Z,101243.86
2019-04-19T04:34:31.171Z,101248.75
2019-04-19T04:37:30.501Z,101248.86
2019-04-19T04:40:21.398Z,101246.83
2019-04-19T04:43:35.710Z,101249.84
2019-04-19T04:47:03.266Z,101251.47
2019-04-19T04:50:24.131Z,101255.75
2019-04-19T04:53:27.866Z,101261.63
2019-04-19T04:56:49.854Z,101262.30
2019-04-19T04:59:47.440Z,101261.33
2019-04-19T05:03:07.909Z,101264.28
2019-04-19T05:06:13.722Z,101271.72
2019-04-19T05:09:18.700Z,101273.27
2019-04-19T05:12:29.122Z,101273.89
2019-04-19T05:15:27.522Z,101277.52
2019-04-19T05:18:29.964Z,101281.47
2019-04-19T05:21:32.434Z,101274.66
2019-04-19T05:24:51.477Z,101278.61
2019-04-19T05:27:45.562Z,101281.73
2019-04-19T05:30:41.193Z,101289.61
2019-04-19T05:33:47.473Z,101287.92
2019-04-19T05:36:58.293Z,101291.42
2019-04-19T05:40:16.690Z,101287.71
2019-04-19T05:43:46.364Z,101284.75
2019-04-19T05:46:33.230Z,101292.03
2019-04-19T05:49:28.051Z,101293.10
2019-04-19T05:52:34.579Z,101286.68
2019-04-19T05:55:22.270Z,101282.27
2019-04-19T05:58:42.267Z,101283.20
2019-04-19T06:01:51.653Z,101287.31
2019-04-19T06:05:01.339Z,101283.19
2019-04-19T06:07:53.806Z,101285.49
2019-04-19T06:10:52.940Z,101287.20
2019-04-19T06:14:12.517Z,101288.75
2019-04-19T06:17:34.679Z,101292.06
2019-04-19T06:20:39.452Z,101291.49
2019-04-19T06:23:48.185Z,101290.78
2019-04-19T06:30:00.199Z,101293.33
2019-04-19T06:33:02.312Z,101291.83
2019-04-19T06:35:51.963Z,101300.55
2019-04-19T06:38:50.768Z,101303.12
2019-04-19T06:42:00.502Z,101298.90
2019-04-19T06:45:18.305Z,101302.57
2019-04-19T06:48:11.446Z,101310.80
2019-04-19T06:51:20.453Z,101304.09
2019-04-19T06:54:15.930Z,101303.96
2019-04-19T06:57:28.399Z,101302.63
2019-04-19T07:00:40.213Z,101304.77
2019-04-19T07:03:30.045Z,101308.95
2019-04-19T07:06:48.279Z,101309.31
2019-04-19T07:10:04.030Z,101309.22
2019-04-19T07:13:00.701Z,101310.48
2019-04-19T07:16:13.103Z,101307.14
2019-04-19T07:19:13.425Z,101306.06
2019-04-19T07:22:12.050Z,101307.13
2019-04-19T07:25:31.773Z,101310.73
2019-04-19T07:28:16.622Z,101312.38
2019-04-19T07:31:15.120Z,101316.97
2019-04-19T07:34:38.414Z,101319.30
2019-04-19T07:37:41.831Z,101324.27
2019-04-19T07:40:51.499Z,101326.10
2019-04-19T07:44:19.978Z,101327.06
2019-04-19T07:47:29.455Z,101320.93
2019-04-19T07:50:27.979Z,101324.26
2019-04-19T07:53:36.901Z,101320.42
2019-04-19T07:56:47.160Z,101325.64
2019-04-19T08:00:02.791Z,101327.76
2019-04-19T08:03:10.539Z,101331.83
2019-04-19T08:09:18.920Z,101330.22
2019-04-19T08:12:27.728Z,101333.06
2019-04-19T08:27:33.838Z,101340.55
2019-04-19T08:30:37.970Z,101342.38
2019-04-19T08:33:36.031Z,101339.53
2019-04-19T08:36:46.174Z,101339.09
2019-04-19T08:39:58.154Z,101339.70
2019-04-19T08:43:07.314Z,101336.56
2019-04-19T08:46:13.580Z,101340.47
2019-04-19T08:49:33.712Z,101338.83
2019-04-19T08:52:36.984Z,101333.28
2019-04-19T08:55:57.925Z,101334.67
2019-04-19T08:59:00.531Z,101330.73
2019-04-19T09:02:06.676Z,101335.08
2019-04-19T09:05:09.088Z,101336.97
2019-04-19T09:08:18.355Z,101337.55
2019-04-19T09:11:22.541Z,101331.81
2019-04-19T09:14:30.305Z,101329.09
2019-04-19T09:17:45.266Z,101331.34
2019-04-19T09:20:41.353Z,101334.83
2019-04-19T09:23:39.268Z,101330.55
2019-04-19T09:26:53.060Z,101327.28
2019-04-19T09:29:58.911Z,101328.33
2019-04-19T09:32:46.813Z,101327.31
2019-04-19T09:35:59.099Z,101327.29
2019-04-19T09:39:08.602Z,101322.63
2019-04-19T09:42:12.841Z,101314.11
2019-04-19T09:45:07.095Z,101302.63
2019-04-19T09:48:31.622Z,101308.61
2019-04-19T09:51:35.228Z,101310.58
2019-04-19T09:54:48.716Z,101305.81
2019-04-19T09:57:48.223Z,101304.83
2019-04-19T10:00:32.378Z,101300.62
2019-04-19T10:03:45.186Z,101295.17
2019-04-19T10:06:42.728Z,101298.12
2019-04-19T10:09:47.113Z,101296.70
2019-04-19T10:12:51.803Z,101297.78
2019-04-19T10:15:58.816Z,101302.38
2019-04-19T10:19:06.155Z,101300.47
2019-04-19T10:22:16.462Z,101296.69
2019-04-19T10:25:23.268Z,101297.73
2019-04-19T10:28:26.981Z,101288.00
2019-04-19T10:31:43.234Z,101286.24
2019-04-19T10:34:46.437Z,101283.08
2019-04-19T10:37:49.385Z,101280.08
2019-04-19T10:40:53.493Z,101290.87
2019-04-19T10:44:07.273Z,101286.58
2019-04-19T10:47:04.907Z,101287.83
2019-04-19T10:50:20.633Z,101286.61
2019-04-19T10:53:14.523Z,101295.09
2019-04-19T10:56:29.868Z,101284.91
2019-04-19T10:59:34.390Z,101285.31
2019-04-19T11:02:38.451Z,101282.14
2019-04-19T11:05:44.964Z,101283.51
2019-04-19T11:08:49.201Z,101292.62
2019-04-19T11:11:52.324Z,101278.02
2019-04-19T11:14:55.746Z,101279.03
2019-04-19T11:17:59.298Z,101273.84
2019-04-19T11:21:02.586Z,101276.64
2019-04-19T11:24:05.559Z,101279.70
2019-04-19T11:27:08.948Z,101274.27
2019-04-19T11:30:39.159Z,101276.66
2019-04-19T11:33:43.340Z,101271.49
2019-04-19T11:36:47.472Z,101268.97
2019-04-19T11:39:50.973Z,101262.70
2019-04-19T11:42:55.302Z,101271.39
2019-04-19T11:45:59.927Z,101267.58
2019-04-19T11:49:03.871Z,101252.20
2019-04-19T11:52:11.209Z,101251.11
2019-04-19T11:55:14.714Z,101254.05
2019-04-19T11:58:18.050Z,101251.50
2019-04-19T12:01:25.977Z,101258.20
2019-04-19T12:04:30.172Z,101249.59
2019-04-19T12:07:33.164Z,101238.41
2019-04-19T12:10:37.079Z,101242.34
2019-04-19T12:13:41.163Z,101241.63
2019-04-19T12:16:44.770Z,101246.72
2019-04-19T12:19:52.927Z,101244.38
2019-04-19T12:22:53.718Z,101238.17
2019-04-19T12:25:57.571Z,101237.02
2019-04-19T12:29:03.764Z,101231.76
2019-04-19T12:32:05.519Z,101239.18
2019-04-19T12:35:08.814Z,101239.56
2019-04-19T12:38:12.364Z,101237.25
2019-04-19T12:41:16.283Z,101240.75
2019-04-19T12:44:20.856Z,101225.63
2019-04-19T12:47:24.767Z,101230.75
2019-04-19T12:50:27.879Z,101224.52
2019-04-19T12:53:30.987Z,101235.38
2019-04-19T12:56:34.286Z,101228.33
2019-04-19T12:59:38.054Z,101232.63
2019-04-19T13:03:03.636Z,101229.91
2019-04-19T13:06:09.239Z,101228.67
2019-04-19T13:09:13.005Z,101226.70
2019-04-19T13:12:16.999Z,101226.69
2019-04-19T13:15:20.217Z,101224.84
2019-04-19T13:18:24.383Z,101221.22
2019-04-19T13:21:28.235Z,101205.56
2019-04-19T13:24:32.182Z,101208.41
2019-04-19T13:27:44.136Z,101208.11
2019-04-19T13:30:48.061Z,101207.98
2019-04-19T13:33:46.703Z,101209.94
2019-04-19T13:37:15.428Z,101206.73
2019-04-19T13:40:26.197Z,101213.23
2019-04-19T13:43:29.313Z,101217.64
2019-04-19T13:46:32.854Z,101203.78
2019-04-19T13:49:37.327Z,101208.02
2019-04-19T13:52:42.250Z,101202.93
2019-04-19T13:55:46.584Z,101188.01
2019-04-19T13:58:49.818Z,101196.98
2019-04-19T14:01:53.033Z,101197.09
2019-04-19T14:04:56.026Z,101189.47
2019-04-19T14:07:59.270Z,101184.80
2019-04-19T14:11:03.376Z,101191.23
2019-04-19T14:14:07.705Z,101182.13
2019-04-19T14:17:11.814Z,101188.50
2019-04-19T14:20:27.540Z,101185.20
2019-04-19T14:23:21.586Z,101184.38
2019-04-19T14:26:34.623Z,101186.80
2019-04-19T14:29:29.877Z,101181.48
2019-04-19T14:32:33.135Z,101180.55
2019-04-19T14:35:37.721Z,101175.45
2019-04-19T14:38:41.389Z,101185.68
2019-04-19T14:41:45.515Z,101184.06
2019-04-19T14:44:50.007Z,101188.22
2019-04-19T14:47:53.443Z,101176.80
2019-04-19T14:51:03.152Z,101174.88
2019-04-19T14:54:02.670Z,101172.95
2019-04-19T14:57:07.227Z,101177.59
2019-04-19T15:00:16.804Z,101170.81
2019-04-19T15:03:23.510Z,101171.98
2019-04-19T15:06:26.434Z,101162.80
2019-04-19T15:09:29.923Z,101162.03
2019-04-19T15:12:36.557Z,101158.16
2019-04-19T15:15:39.839Z,101168.78
2019-04-19T15:18:45.255Z,101162.48
2019-04-19T15:21:50.079Z,101170.05
2019-04-19T15:24:53.085Z,101167.52
2019-04-19T15:27:57.038Z,101164.61
2019-04-19T15:31:02.481Z,101166.69
2019-04-19T15:34:06.192Z,101162.63
2019-04-19T15:37:09.620Z,101162.63
2019-04-19T15:40:18.319Z,101167.54
2019-04-19T15:43:21.524Z,101164.98
2019-04-19T15:46:25.913Z,101160.81
2019-04-19T15:49:29.980Z,101171.67
2019-04-19T15:52:33.972Z,101165.23
2019-04-19T15:55:37.878Z,101166.22
2019-04-19T15:58:40.869Z,101163.71
2019-04-19T16:02:02.182Z,101158.13
2019-04-19T16:05:26.165Z,101156.10
2019-04-19T16:08:52.759Z,101163.14
2019-04-19T16:12:00.635Z,101167.80
2019-04-19T16:15:06.200Z,101167.19
2019-04-19T16:18:10.429Z,101166.94
2019-04-19T16:21:23.557Z,101174.96
2019-04-19T16:24:19.308Z,101169.42
2019-04-19T16:27:23.147Z,101172.15
2019-04-19T16:30:26.596Z,101177.32
2019-04-19T16:33:29.864Z,101177.93
2019-04-19T16:36:33.309Z,101171.31
2019-04-19T16:39:37.511Z,101173.29
2019-04-19T16:42:41.088Z,101171.65
2019-04-19T16:45:46.242Z,101177.42
2019-04-19T16:48:50.722Z,101187.94
2019-04-19T16:51:57.546Z,101181.10
2019-04-19T16:55:00.571Z,101181.45
2019-04-19T16:58:04.598Z,101182.20
2019-04-19T17:01:07.555Z,101187.85
2019-04-19T17:04:11.346Z,101181.14
2019-04-19T17:07:14.548Z,101185.66
2019-04-19T17:10:18.809Z,101188.16
2019-04-19T17:13:22.721Z,101191.58
2019-04-19T17:16:46.405Z,101192.05
2019-04-19T17:20:12.791Z,101195.83
2019-04-19T17:23:16.968Z,101197.03
2019-04-19T17:26:20.271Z,101193.31
2019-04-19T17:29:24.770Z,101198.03
2019-04-19T17:32:28.209Z,101196.75
2019-04-19T17:35:32.195Z,101193.59
2019-04-19T17:38:58.289Z,101200.73
2019-04-19T17:42:01.068Z,101200.39
2019-04-19T17:45:07.298Z,101209.84
2019-04-19T17:48:10.505Z,101210.56
2019-04-19T17:51:15.702Z,101203.44
2019-04-19T17:54:39.157Z,101210.00
2019-04-19T17:57:25.016Z,101214.34
2019-04-19T18:00:28.359Z,101219.03
2019-04-19T18:03:31.703Z,101220.69
2019-04-19T18:06:34.642Z,101224.48
2019-04-19T18:09:45.616Z,101229.01
2019-04-19T18:12:43.336Z,101233.53
2019-04-19T18:15:47.044Z,101237.15
2019-04-19T18:18:52.664Z,101237.86
2019-04-19T18:22:03.698Z,101241.78
2019-04-19T18:25:03.626Z,101241.79
2019-04-19T18:28:09.415Z,101245.69
2019-04-19T18:31:12.750Z,101250.03
2019-04-19T18:34:37.768Z,101245.80
2019-04-19T18:37:43.998Z,101255.06
2019-04-19T18:40:47.080Z,101258.50
2019-04-19T18:44:03.104Z,101264.17
2019-04-19T18:46:56.450Z,101263.02
2019-04-19T18:49:59.947Z,101272.87
2019-04-19T18:53:15.287Z,101267.52
2019-04-19T18:56:12.385Z,101273.96
2019-04-19T18:59:19.187Z,101275.67
2019-04-19T19:02:21.401Z,101282.93
2019-04-19T19:05:23.789Z,101275.80
2019-04-19T19:08:29.801Z,101281.17
2019-04-19T19:11:32.730Z,101280.77
2019-04-19T19:14:37.342Z,101289.94
2019-04-19T19:17:43.814Z,101284.08
2019-04-19T19:20:50.811Z,101289.08
2019-04-19T19:24:15.214Z,101288.82
2019-04-19T19:27:05.009Z,101296.93
2019-04-19T19:30:02.217Z,101295.34
2019-04-19T19:33:13.169Z,101303.70
2019-04-19T19:36:19.580Z,101305.37
2019-04-19T19:39:27.390Z,101302.45
2019-04-19T19:42:54.726Z,101303.66
2019-04-19T19:45:50.787Z,101307.98
2019-04-19T19:49:18.861Z,101303.28
2019-04-19T19:51:54.741Z,101303.25
2019-04-19T19:55:08.831Z,101309.31
2019-04-19T19:58:00.726Z,101310.39
2019-04-19T20:01:11.856Z,101309.07
2019-04-19T20:04:04.722Z,101308.11
2019-04-19T20:07:12.738Z,101312.77
2019-04-19T20:10:15.826Z,101306.95
2019-04-19T20:13:21.249Z,101316.23
2019-04-19T20:16:26.876Z,101316.52
2019-04-19T20:19:28.448Z,101316.41
2019-04-19T20:22:36.522Z,101320.72
2019-04-19T20:25:46.386Z,101317.85
2019-04-19T20:28:43.265Z,101323.38
2019-04-19T20:31:46.216Z,101324.23
2019-04-19T20:34:49.967Z,101322.21
2019-04-19T20:37:58.567Z,101328.87
2019-04-19T20:41:02.447Z,101329.20
2019-04-19T20:44:24.441Z,101330.90
2019-04-19T20:47:10.384Z,101334.61
2019-04-19T20:50:23.454Z,101330.88
2019-04-19T20:53:35.710Z,101335.13
2019-04-19T20:57:04.669Z,101331.86
2019-04-19T20:59:53.653Z,101336.80
2019-04-19T21:02:52.523Z,101340.48
2019-04-19T21:05:56.304Z,101336.08
2019-04-19T21:09:01.323Z,101343.46
2019-04-19T21:12:09.504Z,101341.33
2019-04-19T21:15:21.868Z,101348.71
2019-04-19T21:18:22.123Z,101346.80
2019-04-19T21:21:22.680Z,101345.84
2019-04-19T21:24:26.749Z,101353.26
2019-04-19T21:27:33.301Z,101352.50
2019-04-19T21:30:34.826Z,101348.86
2019-04-19T21:33:45.076Z,101354.42
2019-04-19T21:36:52.822Z,101347.36
2019-04-19T21:39:51.870Z,101356.59
2019-04-19T21:42:58.050Z,101351.16
2019-04-19T21:45:59.633Z,101355.63
2019-04-19T21:49:11.092Z,101358.73
2019-04-19T21:52:13.783Z,101359.84
2019-04-19T21:55:25.310Z,101359.16
2019-04-19T21:58:21.154Z,101361.19
2019-04-19T22:01:25.450Z,101357.62
2019-04-19T22:04:29.559Z,101362.25
2019-04-19T22:07:40.186Z,101364.44
2019-04-19T22:10:42.154Z,101371.17
2019-04-19T22:13:45.604Z,101367.33
2019-04-19T22:16:48.615Z,101369.28
2019-04-19T22:19:51.654Z,101374.80
2019-04-19T22:23:01.214Z,101371.03
2019-04-19T22:26:13.204Z,101370.87
2019-04-19T22:29:04.302Z,101368.96
2019-04-19T22:32:13.422Z,101375.23
2019-04-19T22:35:18.401Z,101368.86
2019-04-19T22:38:22.141Z,101369.00
2019-04-19T22:41:25.653Z,101368.30
2019-04-19T22:44:28.469Z,101373.20
2019-04-19T22:47:33.546Z,101374.27
2019-04-19T22:50:39.180Z,101370.49
2019-04-19T22:53:44.204Z,101373.15
2019-04-19T22:56:58.605Z,101367.62
2019-04-19T22:59:56.484Z,101365.33
2019-04-19T23:03:04.994Z,101360.59
2019-04-19T23:06:13.576Z,101357.95
2019-04-19T23:09:17.661Z,101363.64
2019-04-19T23:12:18.575Z,101363.70
2019-04-19T23:15:27.032Z,101340.44
2019-04-19T23:18:28.951Z,101358.80
2019-04-19T23:21:33.041Z,101355.98
2019-04-19T23:24:43.741Z,101357.05
2019-04-19T23:27:48.712Z,101359.66
2019-04-19T23:30:47.395Z,101356.72
2019-04-19T23:33:58.674Z,101351.01
2019-04-19T23:36:59.909Z,101353.84
2019-04-19T23:40:01.259Z,101353.29
2019-04-19T23:43:06.016Z,101345.30
2019-04-19T23:46:18.685Z,101350.55
2019-04-19T23:49:17.552Z,101347.10
2019-04-19T23:52:21.189Z,101348.44
2019-04-19T23:55:24.527Z,101347.00
2019-04-19T23:58:33.731Z,101349.43
